sensor_id;sensor_type;location;lat;lon;timestamp;P1;durP1;ratioP1;P2;durP2;ratioP2
31091;SDS011;67728;53.122;12.776;2023-08-20T00:00:04;35.73;;;15.43;;
31091;SDS011;67728;53.122;12.776;2023-08-20T00:01:37;30.60;;;13.03;;
31091;SDS011;67728;53.122;12.776;2023-08-20T00:03:10;22.10;;;10.70;;
31091;SDS011;67728;53.122;12.776;2023-08-20T00:04:43;28.93;;;11.27;;
31091;SDS011;67728;53.122;12.776;2023-08-20T00:06:18;27.10;;;11.20;;
31091;SDS011;67728;53.122;12.776;2023-08-20T00:07:50;47.97;;;13.57;;
31091;SDS011;67728;53.122;12.776;2023-08-20T00:09:23;23.37;;;10.73;;
31091;SDS011;67728;53.122;12.776;2023-08-20T00:10:57;51.50;;;13.27;;
31091;SDS011;67728;53.122;12.776;2023-08-20T00:12:28;23.90;;;9.80;;
31091;SDS011;67728;53.122;12.776;2023-08-20T00:13:59;29.33;;;9.83;;
31091;SDS011;67728;53.122;12.776;2023-08-20T00:15:30;23.40;;;9.90;;
31091;SDS011;67728;53.122;12.776;2023-08-20T00:17:01;20.17;;;8.77;;
31091;SDS011;67728;53.122;12.776;2023-08-20T00:18:33;31.03;;;11.63;;
31091;SDS011;67728;53.122;12.776;2023-08-20T00:20:05;28.77;;;10.63;;
31091;SDS011;67728;53.122;12.776;2023-08-20T00:21:40;74.43;;;23.27;;
31091;SDS011;67728;53.122;12.776;2023-08-20T00:23:14;24.30;;;18.43;;
31091;SDS011;67728;53.122;12.776;2023-08-20T00:24:47;41.27;;;18.90;;
31091;SDS011;67728;53.122;12.776;2023-08-20T00:26:19;29.47;;;17.63;;
31091;SDS011;67728;53.122;12.776;2023-08-20T00:27:51;35.90;;;19.87;;
31091;SDS011;67728;53.122;12.776;2023-08-20T00:29:21;30.67;;;20.17;;
31091;SDS011;67728;53.122;12.776;2023-08-20T00:30:53;35.03;;;26.97;;
31091;SDS011;67728;53.122;12.776;2023-08-20T00:32:23;29.27;;;24.63;;
31091;SDS011;67728;53.122;12.776;2023-08-20T00:33:55;36.10;;;23.13;;
31091;SDS011;67728;53.122;12.776;2023-08-20T00:35:25;32.03;;;25.77;;
31091;SDS011;67728;53.122;12.776;2023-08-20T00:36:57;29.93;;;19.40;;
31091;SDS011;67728;53.122;12.776;2023-08-20T00:38:27;29.83;;;20.20;;
31091;SDS011;67728;53.122;12.776;2023-08-20T00:40:01;25.37;;;21.67;;
31091;SDS011;67728;53.122;12.776;2023-08-20T00:41:34;28.47;;;24.67;;
31091;SDS011;67728;53.122;12.776;2023-08-20T00:43:06;32.93;;;24.57;;
31091;SDS011;67728;53.122;12.776;2023-08-20T00:44:37;29.30;;;26.03;;
31091;SDS011;67728;53.122;12.776;2023-08-20T00:46:08;31.80;;;28.57;;
31091;SDS011;67728;53.122;12.776;2023-08-20T00:47:40;31.30;;;27.97;;
31091;SDS011;67728;53.122;12.776;2023-08-20T00:49:11;31.73;;;25.33;;
31091;SDS011;67728;53.122;12.776;2023-08-20T00:50:42;31.63;;;27.43;;
31091;SDS011;67728;53.122;12.776;2023-08-20T00:52:14;34.30;;;30.80;;
31091;SDS011;67728;53.122;12.776;2023-08-20T00:53:46;39.83;;;35.50;;
31091;SDS011;67728;53.122;12.776;2023-08-20T00:55:19;36.30;;;33.13;;
31091;SDS011;67728;53.122;12.776;2023-08-20T00:56:51;55.07;;;50.60;;
31091;SDS011;67728;53.122;12.776;2023-08-20T00:58:22;97.30;;;91.17;;
31091;SDS011;67728;53.122;12.776;2023-08-20T00:59:53;86.67;;;80.90;;
31091;SDS011;67728;53.122;12.776;2023-08-20T01:01:27;84.00;;;78.63;;
31091;SDS011;67728;53.122;12.776;2023-08-20T01:02:57;95.83;;;89.53;;
31091;SDS011;67728;53.122;12.776;2023-08-20T01:04:29;75.53;;;70.60;;
31091;SDS011;67728;53.122;12.776;2023-08-20T01:06:02;102.10;;;96.47;;
31091;SDS011;67728;53.122;12.776;2023-08-20T01:07:43;115.37;;;108.07;;
31091;SDS011;67728;53.122;12.776;2023-08-20T01:09:26;117.10;;;110.40;;
31091;SDS011;67728;53.122;12.776;2023-08-20T01:11:16;126.97;;;120.43;;
31091;SDS011;67728;53.122;12.776;2023-08-20T01:12:49;145.23;;;137.47;;
31091;SDS011;67728;53.122;12.776;2023-08-20T01:14:22;147.70;;;140.40;;
31091;SDS011;67728;53.122;12.776;2023-08-20T01:15:53;151.80;;;144.47;;
31091;SDS011;67728;53.122;12.776;2023-08-20T01:17:24;169.13;;;160.67;;
31091;SDS011;67728;53.122;12.776;2023-08-20T01:18:55;145.83;;;138.80;;
31091;SDS011;67728;53.122;12.776;2023-08-20T01:20:28;128.40;;;121.13;;
31091;SDS011;67728;53.122;12.776;2023-08-20T01:22:11;133.73;;;126.43;;
31091;SDS011;67728;53.122;12.776;2023-08-20T01:24:05;150.63;;;142.90;;
31091;SDS011;67728;53.122;12.776;2023-08-20T01:25:50;165.73;;;157.93;;
31091;SDS011;67728;53.122;12.776;2023-08-20T01:27:36;164.43;;;156.10;;
31091;SDS011;67728;53.122;12.776;2023-08-20T01:29:16;159.57;;;151.77;;
31091;SDS011;67728;53.122;12.776;2023-08-20T01:30:47;163.30;;;154.23;;
31091;SDS011;67728;53.122;12.776;2023-08-20T01:32:20;175.75;;;167.20;;
31091;SDS011;67728;53.122;12.776;2023-08-20T01:33:53;173.47;;;165.30;;
31091;SDS011;67728;53.122;12.776;2023-08-20T01:35:24;178.80;;;169.43;;
31091;SDS011;67728;53.122;12.776;2023-08-20T01:36:56;177.43;;;168.73;;
31091;SDS011;67728;53.122;12.776;2023-08-20T01:38:27;181.70;;;171.87;;
31091;SDS011;67728;53.122;12.776;2023-08-20T01:39:58;197.77;;;188.35;;
31091;SDS011;67728;53.122;12.776;2023-08-20T01:41:29;210.75;;;201.23;;
31091;SDS011;67728;53.122;12.776;2023-08-20T01:43:01;205.93;;;196.73;;
31091;SDS011;67728;53.122;12.776;2023-08-20T01:44:32;192.30;;;181.85;;
31091;SDS011;67728;53.122;12.776;2023-08-20T01:46:04;241.00;;;225.80;;
31091;SDS011;67728;53.122;12.776;2023-08-20T01:47:35;247.18;;;231.18;;
31091;SDS011;67728;53.122;12.776;2023-08-20T01:49:06;214.90;;;196.45;;
31091;SDS011;67728;53.122;12.776;2023-08-20T01:50:37;426.13;;;261.87;;
31091;SDS011;67728;53.122;12.776;2023-08-20T01:52:09;381.58;;;269.48;;
31091;SDS011;67728;53.122;12.776;2023-08-20T01:53:39;405.55;;;255.90;;
31091;SDS011;67728;53.122;12.776;2023-08-20T01:55:11;356.97;;;263.63;;
31091;SDS011;67728;53.122;12.776;2023-08-20T01:56:41;408.05;;;270.05;;
31091;SDS011;67728;53.122;12.776;2023-08-20T01:58:13;403.50;;;273.10;;
31091;SDS011;67728;53.122;12.776;2023-08-20T01:59:45;470.37;;;320.53;;
31091;SDS011;67728;53.122;12.776;2023-08-20T02:01:17;435.30;;;296.73;;
31091;SDS011;67728;53.122;12.776;2023-08-20T02:02:47;92.10;;;86.57;;
31091;SDS011;67728;53.122;12.776;2023-08-20T02:04:19;31.83;;;29.97;;
31091;SDS011;67728;53.122;12.776;2023-08-20T02:05:49;17.93;;;16.70;;
31091;SDS011;67728;53.122;12.776;2023-08-20T02:07:21;17.07;;;15.87;;
31091;SDS011;67728;53.122;12.776;2023-08-20T02:08:51;23.47;;;21.97;;
31091;SDS011;67728;53.122;12.776;2023-08-20T02:10:23;25.77;;;23.87;;
31091;SDS011;67728;53.122;12.776;2023-08-20T02:11:54;30.10;;;28.00;;
31091;SDS011;67728;53.122;12.776;2023-08-20T02:13:25;31.37;;;28.67;;
31091;SDS011;67728;53.122;12.776;2023-08-20T02:14:57;23.53;;;20.90;;
31091;SDS011;67728;53.122;12.776;2023-08-20T02:16:29;20.97;;;16.63;;
31091;SDS011;67728;53.122;12.776;2023-08-20T02:18:00;24.67;;;18.60;;
31091;SDS011;67728;53.122;12.776;2023-08-20T02:19:32;19.77;;;17.13;;
31091;SDS011;67728;53.122;12.776;2023-08-20T02:21:03;20.33;;;18.10;;
31091;SDS011;67728;53.122;12.776;2023-08-20T02:22:34;22.93;;;20.97;;
31091;SDS011;67728;53.122;12.776;2023-08-20T02:24:05;19.07;;;17.73;;
31091;SDS011;67728;53.122;12.776;2023-08-20T02:25:37;18.53;;;16.90;;
31091;SDS011;67728;53.122;12.776;2023-08-20T02:27:08;14.63;;;13.47;;
31091;SDS011;67728;53.122;12.776;2023-08-20T02:28:39;40.83;;;24.97;;
31091;SDS011;67728;53.122;12.776;2023-08-20T02:30:13;22.70;;;17.77;;
31091;SDS011;67728;53.122;12.776;2023-08-20T02:31:43;24.33;;;20.87;;
31091;SDS011;67728;53.122;12.776;2023-08-20T02:33:15;19.00;;;16.37;;
31091;SDS011;67728;53.122;12.776;2023-08-20T02:34:48;17.00;;;12.17;;
31091;SDS011;67728;53.122;12.776;2023-08-20T02:36:21;21.50;;;14.97;;
31091;SDS011;67728;53.122;12.776;2023-08-20T02:37:53;23.37;;;14.30;;
31091;SDS011;67728;53.122;12.776;2023-08-20T02:39:23;21.17;;;13.73;;
31091;SDS011;67728;53.122;12.776;2023-08-20T02:40:55;19.57;;;11.13;;
31091;SDS011;67728;53.122;12.776;2023-08-20T02:42:26;26.83;;;12.77;;
31091;SDS011;67728;53.122;12.776;2023-08-20T02:43:57;14.37;;;10.63;;
31091;SDS011;67728;53.122;12.776;2023-08-20T02:45:30;18.87;;;11.33;;
31091;SDS011;67728;53.122;12.776;2023-08-20T02:47:02;18.13;;;16.27;;
31091;SDS011;67728;53.122;12.776;2023-08-20T02:48:33;35.60;;;24.87;;
31091;SDS011;67728;53.122;12.776;2023-08-20T02:50:05;20.90;;;19.10;;
31091;SDS011;67728;53.122;12.776;2023-08-20T02:51:36;19.57;;;16.13;;
31091;SDS011;67728;53.122;12.776;2023-08-20T02:53:07;18.27;;;16.90;;
31091;SDS011;67728;53.122;12.776;2023-08-20T02:54:38;27.97;;;22.23;;
31091;SDS011;67728;53.122;12.776;2023-08-20T02:56:10;27.37;;;22.57;;
31091;SDS011;67728;53.122;12.776;2023-08-20T02:57:40;26.83;;;21.60;;
31091;SDS011;67728;53.122;12.776;2023-08-20T02:59:12;24.93;;;22.10;;
31091;SDS011;67728;53.122;12.776;2023-08-20T03:00:44;37.33;;;23.53;;
31091;SDS011;67728;53.122;12.776;2023-08-20T03:02:16;28.60;;;25.67;;
31091;SDS011;67728;53.122;12.776;2023-08-20T03:03:46;37.73;;;33.17;;
31091;SDS011;67728;53.122;12.776;2023-08-20T03:05:18;36.87;;;19.03;;
31091;SDS011;67728;53.122;12.776;2023-08-20T03:06:48;25.20;;;15.80;;
31091;SDS011;67728;53.122;12.776;2023-08-20T03:08:20;37.20;;;33.77;;
31091;SDS011;67728;53.122;12.776;2023-08-20T03:09:51;53.13;;;47.87;;
31091;SDS011;67728;53.122;12.776;2023-08-20T03:11:22;64.33;;;58.23;;
31091;SDS011;67728;53.122;12.776;2023-08-20T03:12:53;87.83;;;82.53;;
31091;SDS011;67728;53.122;12.776;2023-08-20T03:14:24;94.97;;;88.90;;
31091;SDS011;67728;53.122;12.776;2023-08-20T03:15:56;124.83;;;117.63;;
31091;SDS011;67728;53.122;12.776;2023-08-20T03:17:28;127.27;;;119.47;;
31091;SDS011;67728;53.122;12.776;2023-08-20T03:18:59;136.33;;;128.80;;
31091;SDS011;67728;53.122;12.776;2023-08-20T03:20:30;149.83;;;141.60;;
31091;SDS011;67728;53.122;12.776;2023-08-20T03:22:01;159.17;;;150.87;;
31091;SDS011;67728;53.122;12.776;2023-08-20T03:23:32;172.57;;;164.03;;
31091;SDS011;67728;53.122;12.776;2023-08-20T03:25:03;177.37;;;169.10;;
31091;SDS011;67728;53.122;12.776;2023-08-20T03:26:35;188.43;;;179.63;;
31091;SDS011;67728;53.122;12.776;2023-08-20T03:28:06;190.27;;;181.63;;
31091;SDS011;67728;53.122;12.776;2023-08-20T03:29:37;65.50;;;59.07;;
31091;SDS011;67728;53.122;12.776;2023-08-20T03:31:09;204.33;;;191.30;;
31091;SDS011;67728;53.122;12.776;2023-08-20T03:32:41;72.00;;;64.83;;
31091;SDS011;67728;53.122;12.776;2023-08-20T03:34:12;106.83;;;96.13;;
31091;SDS011;67728;53.122;12.776;2023-08-20T03:35:44;73.17;;;67.37;;
31091;SDS011;67728;53.122;12.776;2023-08-20T03:37:16;87.53;;;78.67;;
31091;SDS011;67728;53.122;12.776;2023-08-20T03:38:47;59.53;;;54.53;;
31091;SDS011;67728;53.122;12.776;2023-08-20T03:40:19;45.67;;;42.03;;
31091;SDS011;67728;53.122;12.776;2023-08-20T03:41:49;27.77;;;25.10;;
31091;SDS011;67728;53.122;12.776;2023-08-20T03:43:21;27.83;;;25.73;;
31091;SDS011;67728;53.122;12.776;2023-08-20T03:44:53;36.90;;;33.90;;
31091;SDS011;67728;53.122;12.776;2023-08-20T03:46:25;34.27;;;32.03;;
31091;SDS011;67728;53.122;12.776;2023-08-20T03:47:57;37.77;;;34.40;;
31091;SDS011;67728;53.122;12.776;2023-08-20T03:49:27;32.20;;;29.63;;
31091;SDS011;67728;53.122;12.776;2023-08-20T03:50:59;34.43;;;22.77;;
31091;SDS011;67728;53.122;12.776;2023-08-20T03:52:30;55.50;;;30.30;;
31091;SDS011;67728;53.122;12.776;2023-08-20T03:54:01;32.43;;;30.20;;
31091;SDS011;67728;53.122;12.776;2023-08-20T03:55:33;37.13;;;32.47;;
31091;SDS011;67728;53.122;12.776;2023-08-20T03:57:03;20.10;;;18.03;;
31091;SDS011;67728;53.122;12.776;2023-08-20T03:58:35;35.80;;;24.13;;
31091;SDS011;67728;53.122;12.776;2023-08-20T04:00:06;40.27;;;30.17;;
31091;SDS011;67728;53.122;12.776;2023-08-20T04:01:41;39.67;;;20.13;;
31091;SDS011;67728;53.122;12.776;2023-08-20T04:03:11;37.40;;;24.10;;
31091;SDS011;67728;53.122;12.776;2023-08-20T04:04:44;73.97;;;27.03;;
31091;SDS011;67728;53.122;12.776;2023-08-20T04:06:14;150.80;;;31.07;;
31091;SDS011;67728;53.122;12.776;2023-08-20T04:07:46;172.73;;;37.03;;
31091;SDS011;67728;53.122;12.776;2023-08-20T04:09:17;146.47;;;36.20;;
31091;SDS011;67728;53.122;12.776;2023-08-20T04:10:48;209.27;;;42.93;;
31091;SDS011;67728;53.122;12.776;2023-08-20T04:12:19;21.43;;;20.00;;
31091;SDS011;67728;53.122;12.776;2023-08-20T04:13:50;23.13;;;20.77;;
31091;SDS011;67728;53.122;12.776;2023-08-20T04:15:21;22.83;;;20.67;;
31091;SDS011;67728;53.122;12.776;2023-08-20T04:16:54;26.17;;;20.67;;
31091;SDS011;67728;53.122;12.776;2023-08-20T04:18:24;36.57;;;20.70;;
31091;SDS011;67728;53.122;12.776;2023-08-20T04:19:56;27.90;;;24.67;;
31091;SDS011;67728;53.122;12.776;2023-08-20T04:21:27;34.10;;;25.10;;
31091;SDS011;67728;53.122;12.776;2023-08-20T04:22:58;25.90;;;23.63;;
31091;SDS011;67728;53.122;12.776;2023-08-20T04:24:30;28.87;;;19.53;;
31091;SDS011;67728;53.122;12.776;2023-08-20T04:26:01;40.27;;;25.03;;
31091;SDS011;67728;53.122;12.776;2023-08-20T04:27:32;59.97;;;23.23;;
31091;SDS011;67728;53.122;12.776;2023-08-20T04:29:03;27.30;;;20.47;;
31091;SDS011;67728;53.122;12.776;2023-08-20T04:30:35;25.70;;;21.63;;
31091;SDS011;67728;53.122;12.776;2023-08-20T04:32:07;36.87;;;18.17;;
31091;SDS011;67728;53.122;12.776;2023-08-20T04:33:39;48.90;;;26.97;;
31091;SDS011;67728;53.122;12.776;2023-08-20T04:35:09;130.47;;;101.83;;
31091;SDS011;67728;53.122;12.776;2023-08-20T04:36:41;114.27;;;101.93;;
31091;SDS011;67728;53.122;12.776;2023-08-20T04:38:11;47.03;;;17.70;;
31091;SDS011;67728;53.122;12.776;2023-08-20T04:39:43;47.70;;;31.07;;
31091;SDS011;67728;53.122;12.776;2023-08-20T04:41:14;62.70;;;22.53;;
31091;SDS011;67728;53.122;12.776;2023-08-20T04:42:45;200.67;;;163.43;;
31091;SDS011;67728;53.122;12.776;2023-08-20T04:44:16;331.37;;;233.33;;
31091;SDS011;67728;53.122;12.776;2023-08-20T04:45:47;225.17;;;200.03;;
31091;SDS011;67728;53.122;12.776;2023-08-20T04:47:21;149.93;;;117.03;;
31091;SDS011;67728;53.122;12.776;2023-08-20T04:48:52;183.80;;;153.80;;
31091;SDS011;67728;53.122;12.776;2023-08-20T04:50:23;334.90;;;244.97;;
31091;SDS011;67728;53.122;12.776;2023-08-20T04:51:55;129.10;;;115.93;;
31091;SDS011;67728;53.122;12.776;2023-08-20T04:53:26;261.63;;;227.23;;
31091;SDS011;67728;53.122;12.776;2023-08-20T04:54:57;148.90;;;130.97;;
31091;SDS011;67728;53.122;12.776;2023-08-20T04:56:29;351.17;;;309.77;;
31091;SDS011;67728;53.122;12.776;2023-08-20T04:58:00;201.30;;;179.93;;
31091;SDS011;67728;53.122;12.776;2023-08-20T04:59:32;301.03;;;181.83;;
31091;SDS011;67728;53.122;12.776;2023-08-20T05:01:03;449.23;;;327.63;;
31091;SDS011;67728;53.122;12.776;2023-08-20T05:02:37;292.43;;;260.27;;
31091;SDS011;67728;53.122;12.776;2023-08-20T05:04:07;472.87;;;369.70;;
31091;SDS011;67728;53.122;12.776;2023-08-20T05:05:39;305.07;;;225.20;;
31091;SDS011;67728;53.122;12.776;2023-08-20T05:07:09;574.93;;;399.97;;
31091;SDS011;67728;53.122;12.776;2023-08-20T05:08:41;293.73;;;235.30;;
31091;SDS011;67728;53.122;12.776;2023-08-20T05:10:13;273.73;;;246.10;;
31091;SDS011;67728;53.122;12.776;2023-08-20T05:11:44;49.23;;;45.43;;
31091;SDS011;67728;53.122;12.776;2023-08-20T05:13:15;380.37;;;277.37;;
31091;SDS011;67728;53.122;12.776;2023-08-20T05:14:46;68.07;;;59.93;;
31091;SDS011;67728;53.122;12.776;2023-08-20T05:16:17;136.53;;;105.73;;
31091;SDS011;67728;53.122;12.776;2023-08-20T05:17:50;148.37;;;112.37;;
31091;SDS011;67728;53.122;12.776;2023-08-20T05:19:20;143.60;;;128.77;;
31091;SDS011;67728;53.122;12.776;2023-08-20T05:20:53;92.90;;;84.77;;
31091;SDS011;67728;53.122;12.776;2023-08-20T05:22:23;177.13;;;159.23;;
31091;SDS011;67728;53.122;12.776;2023-08-20T05:23:55;344.30;;;294.13;;
31091;SDS011;67728;53.122;12.776;2023-08-20T05:25:26;154.40;;;139.40;;
31091;SDS011;67728;53.122;12.776;2023-08-20T05:27:03;153.70;;;137.23;;
31091;SDS011;67728;53.122;12.776;2023-08-20T05:28:36;84.00;;;74.87;;
31091;SDS011;67728;53.122;12.776;2023-08-20T05:30:08;74.37;;;68.77;;
31091;SDS011;67728;53.122;12.776;2023-08-20T05:31:40;145.07;;;125.33;;
31091;SDS011;67728;53.122;12.776;2023-08-20T05:33:12;363.10;;;299.70;;
31091;SDS011;67728;53.122;12.776;2023-08-20T05:34:43;262.20;;;234.00;;
31091;SDS011;67728;53.122;12.776;2023-08-20T05:36:14;397.93;;;354.50;;
31091;SDS011;67728;53.122;12.776;2023-08-20T05:37:46;355.93;;;324.83;;
31091;SDS011;67728;53.122;12.776;2023-08-20T05:39:17;60.97;;;56.60;;
31091;SDS011;67728;53.122;12.776;2023-08-20T05:40:48;79.37;;;45.43;;
31091;SDS011;67728;53.122;12.776;2023-08-20T05:42:19;81.67;;;75.73;;
31091;SDS011;67728;53.122;12.776;2023-08-20T05:43:50;74.90;;;68.93;;
31091;SDS011;67728;53.122;12.776;2023-08-20T05:45:21;72.00;;;65.87;;
31091;SDS011;67728;53.122;12.776;2023-08-20T05:46:52;87.67;;;80.70;;
31091;SDS011;67728;53.122;12.776;2023-08-20T05:48:25;79.57;;;73.10;;
31091;SDS011;67728;53.122;12.776;2023-08-20T05:49:56;113.10;;;105.97;;
31091;SDS011;67728;53.122;12.776;2023-08-20T05:51:27;86.50;;;80.47;;
31091;SDS011;67728;53.122;12.776;2023-08-20T05:52:58;56.50;;;52.93;;
31091;SDS011;67728;53.122;12.776;2023-08-20T05:54:29;94.83;;;85.60;;
31091;SDS011;67728;53.122;12.776;2023-08-20T05:56:00;139.70;;;129.27;;
31091;SDS011;67728;53.122;12.776;2023-08-20T05:57:31;283.90;;;167.33;;
31091;SDS011;67728;53.122;12.776;2023-08-20T05:59:03;394.93;;;354.07;;
31091;SDS011;67728;53.122;12.776;2023-08-20T06:00:34;275.10;;;244.87;;
31091;SDS011;67728;53.122;12.776;2023-08-20T06:02:05;440.03;;;379.23;;
31091;SDS011;67728;53.122;12.776;2023-08-20T06:03:37;250.20;;;222.97;;
31091;SDS011;67728;53.122;12.776;2023-08-20T06:05:09;72.97;;;67.47;;
31091;SDS011;67728;53.122;12.776;2023-08-20T06:06:40;51.73;;;47.00;;
31091;SDS011;67728;53.122;12.776;2023-08-20T06:08:11;65.97;;;59.17;;
31091;SDS011;67728;53.122;12.776;2023-08-20T06:09:43;123.03;;;109.97;;
31091;SDS011;67728;53.122;12.776;2023-08-20T06:11:15;62.13;;;57.20;;
31091;SDS011;67728;53.122;12.776;2023-08-20T06:12:45;282.50;;;229.93;;
31091;SDS011;67728;53.122;12.776;2023-08-20T06:14:17;393.60;;;267.77;;
31091;SDS011;67728;53.122;12.776;2023-08-20T06:15:47;55.10;;;52.20;;
31091;SDS011;67728;53.122;12.776;2023-08-20T06:17:19;56.78;;;53.80;;
31091;SDS011;67728;53.122;12.776;2023-08-20T06:18:51;57.88;;;54.05;;
31091;SDS011;67728;53.122;12.776;2023-08-20T06:20:22;99.90;;;73.53;;
31091;SDS011;67728;53.122;12.776;2023-08-20T06:21:53;148.80;;;133.43;;
31091;SDS011;67728;53.122;12.776;2023-08-20T06:23:24;89.13;;;81.63;;
31091;SDS011;67728;53.122;12.776;2023-08-20T06:24:55;162.60;;;138.83;;
31091;SDS011;67728;53.122;12.776;2023-08-20T06:26:27;55.17;;;51.37;;
31091;SDS011;67728;53.122;12.776;2023-08-20T06:27:58;54.60;;;50.10;;
31091;SDS011;67728;53.122;12.776;2023-08-20T06:29:30;53.40;;;49.63;;
31091;SDS011;67728;53.122;12.776;2023-08-20T06:31:01;145.07;;;72.28;;
31091;SDS011;67728;53.122;12.776;2023-08-20T06:32:33;101.77;;;92.83;;
31091;SDS011;67728;53.122;12.776;2023-08-20T06:34:06;110.17;;;98.77;;
31091;SDS011;67728;53.122;12.776;2023-08-20T06:35:37;63.30;;;58.07;;
31091;SDS011;67728;53.122;12.776;2023-08-20T06:37:08;158.30;;;100.43;;
31091;SDS011;67728;53.122;12.776;2023-08-20T06:38:39;153.43;;;105.47;;
31091;SDS011;67728;53.122;12.776;2023-08-20T06:40:11;62.15;;;55.95;;
31091;SDS011;67728;53.122;12.776;2023-08-20T06:41:43;56.38;;;51.80;;
31091;SDS011;67728;53.122;12.776;2023-08-20T06:43:15;67.63;;;62.43;;
31091;SDS011;67728;53.122;12.776;2023-08-20T06:44:45;63.72;;;38.22;;
31091;SDS011;67728;53.122;12.776;2023-08-20T06:46:17;73.10;;;65.33;;
31091;SDS011;67728;53.122;12.776;2023-08-20T06:47:48;122.93;;;38.55;;
31091;SDS011;67728;53.122;12.776;2023-08-20T06:49:21;46.55;;;33.30;;
31091;SDS011;67728;53.122;12.776;2023-08-20T06:50:52;45.35;;;37.63;;
31091;SDS011;67728;53.122;12.776;2023-08-20T06:52:23;42.00;;;37.83;;
31091;SDS011;67728;53.122;12.776;2023-08-20T06:53:54;109.00;;;42.93;;
31091;SDS011;67728;53.122;12.776;2023-08-20T06:55:25;105.18;;;95.57;;
31091;SDS011;67728;53.122;12.776;2023-08-20T06:56:56;170.57;;;141.37;;
31091;SDS011;67728;53.122;12.776;2023-08-20T06:58:28;145.80;;;113.50;;
31091;SDS011;67728;53.122;12.776;2023-08-20T06:59:59;120.40;;;101.03;;
31091;SDS011;67728;53.122;12.776;2023-08-20T07:01:30;53.40;;;48.80;;
31091;SDS011;67728;53.122;12.776;2023-08-20T07:03:01;39.35;;;35.80;;
31091;SDS011;67728;53.122;12.776;2023-08-20T07:04:34;153.97;;;86.00;;
31091;SDS011;67728;53.122;12.776;2023-08-20T07:06:05;58.20;;;52.60;;
31091;SDS011;67728;53.122;12.776;2023-08-20T07:07:37;31.23;;;28.20;;
31091;SDS011;67728;53.122;12.776;2023-08-20T07:09:08;36.80;;;29.47;;
31091;SDS011;67728;53.122;12.776;2023-08-20T07:10:40;74.85;;;34.22;;
31091;SDS011;67728;53.122;12.776;2023-08-20T07:12:10;39.25;;;35.25;;
31091;SDS011;67728;53.122;12.776;2023-08-20T07:13:42;62.87;;;42.27;;
31091;SDS011;67728;53.122;12.776;2023-08-20T07:15:13;42.70;;;38.40;;
31091;SDS011;67728;53.122;12.776;2023-08-20T07:16:44;47.70;;;44.07;;
31091;SDS011;67728;53.122;12.776;2023-08-20T07:18:16;54.87;;;51.57;;
31091;SDS011;67728;53.122;12.776;2023-08-20T07:19:48;41.97;;;39.40;;
31091;SDS011;67728;53.122;12.776;2023-08-20T07:21:20;51.70;;;40.92;;
31091;SDS011;67728;53.122;12.776;2023-08-20T07:22:50;35.60;;;32.30;;
31091;SDS011;67728;53.122;12.776;2023-08-20T07:24:22;32.37;;;30.10;;
31091;SDS011;67728;53.122;12.776;2023-08-20T07:26:03;31.77;;;29.23;;
31091;SDS011;67728;53.122;12.776;2023-08-20T07:27:36;68.53;;;34.53;;
31091;SDS011;67728;53.122;12.776;2023-08-20T07:29:07;40.37;;;36.33;;
31091;SDS011;67728;53.122;12.776;2023-08-20T07:30:38;76.27;;;70.67;;
31091;SDS011;67728;53.122;12.776;2023-08-20T07:32:09;32.73;;;30.80;;
31091;SDS011;67728;53.122;12.776;2023-08-20T07:33:40;47.23;;;44.00;;
31091;SDS011;67728;53.122;12.776;2023-08-20T07:35:13;70.93;;;65.07;;
31091;SDS011;67728;53.122;12.776;2023-08-20T07:36:44;78.30;;;47.90;;
31091;SDS011;67728;53.122;12.776;2023-08-20T07:38:17;89.27;;;75.23;;
31091;SDS011;67728;53.122;12.776;2023-08-20T07:39:47;38.37;;;33.83;;
31091;SDS011;67728;53.122;12.776;2023-08-20T07:41:19;28.42;;;26.20;;
31091;SDS011;67728;53.122;12.776;2023-08-20T07:42:50;30.42;;;27.77;;
31091;SDS011;67728;53.122;12.776;2023-08-20T07:44:22;64.80;;;26.88;;
31091;SDS011;67728;53.122;12.776;2023-08-20T07:45:52;318.00;;;257.97;;
31091;SDS011;67728;53.122;12.776;2023-08-20T07:47:24;58.75;;;53.35;;
31091;SDS011;67728;53.122;12.776;2023-08-20T07:48:55;225.07;;;203.00;;
31091;SDS011;67728;53.122;12.776;2023-08-20T07:50:27;44.90;;;40.67;;
31091;SDS011;67728;53.122;12.776;2023-08-20T07:51:59;262.85;;;222.27;;
31091;SDS011;67728;53.122;12.776;2023-08-20T07:53:29;31.75;;;28.88;;
31091;SDS011;67728;53.122;12.776;2023-08-20T07:55:01;239.95;;;211.75;;
31091;SDS011;67728;53.122;12.776;2023-08-20T07:56:32;216.75;;;194.23;;
31091;SDS011;67728;53.122;12.776;2023-08-20T07:58:03;123.65;;;111.53;;
31091;SDS011;67728;53.122;12.776;2023-08-20T07:59:34;21.30;;;15.75;;
31091;SDS011;67728;53.122;12.776;2023-08-20T08:01:05;154.85;;;67.75;;
31091;SDS011;67728;53.122;12.776;2023-08-20T08:02:36;23.75;;;18.17;;
31091;SDS011;67728;53.122;12.776;2023-08-20T08:04:08;24.40;;;22.20;;
31091;SDS011;67728;53.122;12.776;2023-08-20T08:05:40;26.55;;;22.38;;
31091;SDS011;67728;53.122;12.776;2023-08-20T08:07:11;51.50;;;24.65;;
31091;SDS011;67728;53.122;12.776;2023-08-20T08:08:43;23.50;;;21.85;;
31091;SDS011;67728;53.122;12.776;2023-08-20T08:10:14;27.23;;;24.25;;
31091;SDS011;67728;53.122;12.776;2023-08-20T08:11:46;47.47;;;30.48;;
31091;SDS011;67728;53.122;12.776;2023-08-20T08:13:18;27.58;;;25.75;;
31091;SDS011;67728;53.122;12.776;2023-08-20T08:14:51;28.65;;;26.10;;
31091;SDS011;67728;53.122;12.776;2023-08-20T08:16:21;30.02;;;28.15;;
31091;SDS011;67728;53.122;12.776;2023-08-20T08:17:53;71.72;;;28.00;;
31091;SDS011;67728;53.122;12.776;2023-08-20T08:19:23;26.85;;;24.58;;
31091;SDS011;67728;53.122;12.776;2023-08-20T08:20:56;65.70;;;26.00;;
31091;SDS011;67728;53.122;12.776;2023-08-20T08:22:27;35.05;;;18.45;;
31091;SDS011;67728;53.122;12.776;2023-08-20T08:23:59;76.30;;;21.17;;
31091;SDS011;67728;53.122;12.776;2023-08-20T08:25:29;29.92;;;16.17;;
31091;SDS011;67728;53.122;12.776;2023-08-20T08:27:01;23.70;;;18.92;;
31091;SDS011;67728;53.122;12.776;2023-08-20T08:28:31;31.40;;;18.33;;
31091;SDS011;67728;53.122;12.776;2023-08-20T08:30:03;19.13;;;17.75;;
31091;SDS011;67728;53.122;12.776;2023-08-20T08:31:35;24.35;;;20.20;;
31091;SDS011;67728;53.122;12.776;2023-08-20T08:33:06;44.40;;;21.88;;
31091;SDS011;67728;53.122;12.776;2023-08-20T08:34:38;39.65;;;24.27;;
31091;SDS011;67728;53.122;12.776;2023-08-20T08:36:10;30.42;;;25.73;;
31091;SDS011;67728;53.122;12.776;2023-08-20T08:37:41;44.33;;;29.85;;
31091;SDS011;67728;53.122;12.776;2023-08-20T08:39:12;30.15;;;24.38;;
31091;SDS011;67728;53.122;12.776;2023-08-20T08:40:44;68.50;;;27.48;;
31091;SDS011;67728;53.122;12.776;2023-08-20T08:42:16;63.22;;;56.70;;
31091;SDS011;67728;53.122;12.776;2023-08-20T08:43:50;55.42;;;49.72;;